Terminal Aerodrome Forecast
Issued by NWS Wilmington, OH

Current Version | Previous Version | Graphics & Text | Print | Product List | Glossary On
Versions: 1 2 3 4 5 6 7 8 9 10 11 12 13 14 15 16 17 18 19 20
000
FTUS41 KILN 271720
TAFCMH
TAF
KCMH 271720Z 2718/2818 07004KT P6SM VCSH SCT035 BKN100
      TEMPO 2718/2719 5SM -RA BKN025
     FM272200 06004KT P6SM FEW040 BKN120
     FM280700 05003KT 5SM BR FEW040 SCT250
     FM281300 09005KT P6SM FEW040 SCT250=

USA.gov is the U.S. government's official web portal to all federal, state and local government web resources and services.